createdAt,value
2022-09-09T00:01:21.377Z,34.53
2022-09-09T00:04:05.960Z,40.72
2022-09-09T00:06:39.460Z,35.30
2022-09-09T00:09:16.045Z,40.35
2022-09-09T00:11:58.273Z,39.83
2022-09-09T00:14:40.485Z,42.15
2022-09-09T00:17:19.578Z,37.72
2022-09-09T00:20:00.626Z,36.75
2022-09-09T00:22:37.290Z,42.03
2022-09-09T00:25:18.250Z,41.58
2022-09-09T00:27:52.490Z,36.90
2022-09-09T00:30:27.218Z,38.67
2022-09-09T00:33:03.028Z,38.78
2022-09-09T00:35:41.181Z,36.00
2022-09-09T00:38:19.355Z,35.55
2022-09-09T00:40:55.020Z,37.50
2022-09-09T00:43:34.180Z,37.72
2022-09-09T00:46:37.356Z,32.92
2022-09-09T00:49:37.360Z,35.22
2022-09-09T00:52:27.354Z,43.88
2022-09-09T00:55:09.910Z,38.63
2022-09-09T00:57:42.961Z,41.50
2022-09-09T01:00:26.995Z,38.55
2022-09-09T01:03:19.286Z,42.55
2022-09-09T01:05:55.082Z,41.17
2022-09-09T01:08:55.588Z,41.30
2022-09-09T01:11:30.636Z,39.70
2022-09-09T01:14:14.445Z,41.03
2022-09-09T01:16:47.478Z,49.75
2022-09-09T01:19:28.685Z,39.72
2022-09-09T01:22:15.017Z,35.10
2022-09-09T01:25:16.955Z,34.55
2022-09-09T01:27:55.265Z,38.28
2022-09-09T01:30:28.615Z,35.60
2022-09-09T01:33:04.036Z,42.15
2022-09-09T01:36:08.095Z,34.25
2022-09-09T01:38:41.115Z,37.10
2022-09-09T01:41:13.456Z,38.35
2022-09-09T01:43:48.897Z,35.58
2022-09-09T01:46:23.202Z,32.45
2022-09-09T01:48:57.575Z,35.92
2022-09-09T01:51:29.816Z,39.33
2022-09-09T01:54:02.194Z,35.80
2022-09-09T01:56:44.896Z,35.42
2022-09-09T01:59:33.234Z,34.53
2022-09-09T02:02:14.150Z,40.30
2022-09-09T02:04:48.271Z,32.70
2022-09-09T02:07:34.565Z,38.55
2022-09-09T02:10:34.824Z,32.20
2022-09-09T02:13:13.116Z,39.58
2022-09-09T02:15:56.734Z,35.72
2022-09-09T02:18:35.414Z,34.63
2022-09-09T02:21:07.913Z,36.17
2022-09-09T02:23:41.815Z,31.27
2022-09-09T02:26:21.016Z,30.40
2022-09-09T02:28:55.285Z,30.70
2022-09-09T02:31:30.082Z,36.00
2022-09-09T02:34:05.484Z,32.80
2022-09-09T02:36:40.695Z,33.35
2022-09-09T02:39:14.704Z,29.33
2022-09-09T02:41:46.775Z,33.17
2022-09-09T02:44:21.296Z,30.13
2022-09-09T02:47:17.496Z,32.13
2022-09-09T02:50:03.213Z,30.02
2022-09-09T02:52:45.842Z,30.33
2022-09-09T02:55:25.570Z,31.02
2022-09-09T02:58:00.029Z,30.48
2022-09-09T03:00:32.011Z,30.80
2022-09-09T03:03:07.063Z,33.80
2022-09-09T03:05:38.607Z,32.03
2022-09-09T03:08:10.682Z,32.90
2022-09-09T03:10:42.641Z,29.38
2022-09-09T03:13:16.719Z,35.85
2022-09-09T03:15:48.502Z,29.75
2022-09-09T03:18:23.014Z,32.72
2022-09-09T03:20:55.200Z,28.23
2022-09-09T03:23:26.878Z,30.67
2022-09-09T03:26:00.558Z,30.83
2022-09-09T03:28:32.747Z,27.73
2022-09-09T03:31:04.600Z,26.85
2022-09-09T03:33:38.764Z,28.15
2022-09-09T03:36:10.580Z,25.85
2022-09-09T03:38:42.009Z,28.65
2022-09-09T03:41:13.963Z,26.05
2022-09-09T03:43:45.740Z,30.98
2022-09-09T03:46:17.643Z,28.98
2022-09-09T03:48:55.009Z,31.58
2022-09-09T03:51:29.233Z,24.90
2022-09-09T03:54:02.120Z,26.20
2022-09-09T03:56:33.860Z,26.77
2022-09-09T03:59:07.835Z,34.00
2022-09-09T04:01:43.361Z,26.38
2022-09-09T04:04:21.383Z,26.85
2022-09-09T04:06:53.130Z,30.17
2022-09-09T04:09:29.222Z,27.20
2022-09-09T04:12:01.001Z,27.65
2022-09-09T04:14:32.720Z,25.23
2022-09-09T04:17:07.464Z,32.05
2022-09-09T04:19:41.988Z,26.00
2022-09-09T04:22:15.662Z,26.35
2022-09-09T04:24:48.941Z,25.25
2022-09-09T06:38:24.264Z,11.75
2022-09-09T06:40:59.552Z,11.15
2022-09-09T06:43:31.973Z,10.20
2022-09-09T06:46:06.808Z,11.38
2022-09-09T06:48:39.102Z,10.48
2022-09-09T06:51:13.963Z,11.00
2022-09-09T06:53:50.666Z,10.20
2022-09-09T06:56:26.324Z,13.82
2022-09-09T06:59:00.186Z,10.43
2022-09-09T07:01:35.180Z,5.97
2022-09-09T07:04:09.536Z,8.27
2022-09-09T07:06:44.397Z,7.30
2022-09-09T07:09:20.158Z,9.65
2022-09-09T07:16:14.777Z,7.13
2022-09-09T07:18:59.051Z,7.65
2022-09-09T07:26:27.860Z,8.60
2022-09-09T07:29:27.636Z,5.75
2022-09-09T07:32:32.757Z,5.43
2022-09-09T07:35:33.585Z,5.53
2022-09-09T07:38:34.574Z,10.95
2022-09-09T07:41:15.536Z,6.50
2022-09-09T07:43:59.777Z,9.98
2022-09-09T07:46:37.531Z,8.07
2022-09-09T07:53:00.219Z,8.52
2022-09-09T07:55:32.625Z,7.72
2022-09-09T07:58:07.177Z,7.47
2022-09-09T08:00:41.502Z,8.85
2022-09-09T08:04:05.298Z,7.28
2022-09-09T08:06:46.481Z,5.15
2022-09-09T08:09:38.597Z,10.23
2022-09-09T08:12:14.497Z,7.20
2022-09-09T08:15:40.869Z,5.00
2022-09-09T08:18:59.040Z,5.35
2022-09-09T08:21:33.018Z,6.53
2022-09-09T08:24:07.187Z,6.15
2022-09-09T08:26:41.019Z,5.15
2022-09-09T08:29:29.940Z,4.45
2022-09-09T08:32:03.307Z,5.20
2022-09-09T08:38:28.375Z,7.30
2022-09-09T08:41:59.799Z,7.40
2022-09-09T08:45:14.269Z,5.28
2022-09-09T08:51:41.634Z,6.32
2022-09-09T08:54:52.133Z,7.72
2022-09-09T08:57:35.168Z,6.20
2022-09-09T09:00:11.369Z,4.90
2022-09-09T09:03:59.127Z,9.18
2022-09-09T09:07:32.566Z,3.90
2022-09-09T09:10:41.530Z,8.05
2022-09-09T09:13:22.016Z,5.78
2022-09-09T09:16:01.267Z,6.50
2022-09-09T09:19:23.456Z,7.20
2022-09-09T09:22:33.047Z,5.90
2022-09-09T09:25:18.485Z,6.38
2022-09-09T09:27:57.449Z,4.57
2022-09-09T09:30:34.371Z,5.18
2022-09-09T09:33:11.408Z,4.50
2022-09-09T09:36:16.852Z,6.38
2022-09-09T09:42:52.607Z,4.65
2022-09-09T09:45:55.308Z,5.35
2022-09-09T09:48:50.287Z,6.82
2022-09-09T09:52:23.172Z,4.57
2022-09-09T09:55:29.092Z,5.22
2022-09-09T09:58:23.731Z,5.22
2022-09-09T10:01:31.226Z,6.35
2022-09-09T10:04:06.489Z,7.25
2022-09-09T10:06:52.767Z,3.67
2022-09-09T10:09:30.169Z,5.00
2022-09-09T10:12:10.451Z,6.22
2022-09-09T10:14:56.777Z,7.00
2022-09-09T10:17:40.296Z,4.43
2022-09-09T10:20:37.048Z,5.10
2022-09-09T10:23:26.890Z,4.75
2022-09-09T10:26:15.286Z,4.28
2022-09-09T10:29:06.331Z,4.03
2022-09-09T10:31:55.126Z,5.35
2022-09-09T10:34:51.607Z,10.13
2022-09-09T10:37:34.569Z,5.22
2022-09-09T10:40:19.660Z,5.75
2022-09-09T10:42:51.959Z,5.30
2022-09-09T10:45:35.679Z,5.72
2022-09-09T10:48:35.880Z,6.15
2022-09-09T10:51:21.079Z,8.73
2022-09-09T10:54:06.201Z,4.90
2022-09-09T10:56:41.078Z,6.38
2022-09-09T10:59:19.519Z,4.70
2022-09-09T11:01:58.319Z,4.68
2022-09-09T11:04:40.241Z,6.20
2022-09-09T11:07:16.839Z,5.28
2022-09-09T11:09:54.998Z,6.15
2022-09-09T11:12:29.319Z,3.97
2022-09-09T11:15:09.914Z,3.20
2022-09-09T11:18:09.446Z,4.63
2022-09-09T11:20:44.982Z,4.63
2022-09-09T11:23:21.577Z,4.28
2022-09-09T11:25:59.776Z,2.85
2022-09-09T11:28:46.104Z,3.72
2022-09-09T11:31:38.650Z,4.03
2022-09-09T11:34:39.736Z,4.25
2022-09-09T11:37:30.645Z,5.70
2022-09-09T11:40:26.883Z,4.82
2022-09-09T11:43:15.003Z,4.40
2022-09-09T11:46:00.262Z,3.75
2022-09-09T11:48:38.252Z,3.80
2022-09-09T11:54:29.945Z,4.47
2022-09-09T11:57:03.652Z,3.25
2022-09-09T11:59:39.653Z,3.75
2022-09-09T12:02:23.333Z,3.45
2022-09-09T12:05:07.121Z,3.58
2022-09-09T12:07:44.180Z,4.03
2022-09-09T12:10:34.106Z,3.35
2022-09-09T12:13:21.590Z,3.65
2022-09-09T12:15:56.741Z,4.25
2022-09-09T12:18:38.057Z,3.33
2022-09-09T12:21:21.423Z,3.17
2022-09-09T12:24:15.640Z,7.28
2022-09-09T12:27:01.600Z,3.22
2022-09-09T12:29:46.558Z,6.30
2022-09-09T12:32:23.759Z,3.92
2022-09-09T12:35:01.358Z,3.88
2022-09-09T12:37:38.799Z,2.33
2022-09-09T12:40:24.968Z,4.30
2022-09-09T12:43:00.560Z,4.43
2022-09-09T12:45:37.447Z,3.13
2022-09-09T12:48:24.215Z,5.82
2022-09-09T12:50:58.797Z,3.60
2022-09-09T12:53:35.597Z,3.85
2022-09-09T12:56:11.887Z,3.58
2022-09-09T12:58:53.000Z,2.67
2022-09-09T13:01:27.998Z,6.05
2022-09-09T13:04:00.801Z,3.47
2022-09-09T13:06:35.519Z,4.72
2022-09-09T13:09:08.022Z,4.97
2022-09-09T13:11:44.478Z,3.53
2022-09-09T13:14:27.200Z,7.95
2022-09-09T13:17:02.138Z,7.22
2022-09-09T13:19:38.720Z,3.15
2022-09-09T13:22:18.646Z,3.85
2022-09-09T13:24:50.808Z,7.13
2022-09-09T13:27:32.477Z,5.78
2022-09-09T13:30:29.465Z,6.88
2022-09-09T13:33:23.999Z,4.50
2022-09-09T13:36:02.478Z,6.07
2022-09-09T13:38:40.206Z,4.93
2022-09-09T13:41:14.522Z,5.20
2022-09-09T13:43:49.517Z,4.25
2022-09-09T13:46:37.958Z,4.35
2022-09-09T13:49:25.888Z,4.35
2022-09-09T13:52:09.358Z,4.10
2022-09-09T13:54:42.882Z,2.58
2022-09-09T13:57:21.717Z,3.67
2022-09-09T14:00:04.543Z,3.80
2022-09-09T14:02:52.758Z,6.70
2022-09-09T14:05:26.401Z,7.18
2022-09-09T14:07:58.405Z,7.50
2022-09-09T14:10:31.205Z,7.10
2022-09-09T14:13:03.204Z,6.07
2022-09-09T14:15:35.805Z,6.15
2022-09-09T14:18:10.725Z,5.20
2022-09-09T14:20:43.329Z,6.88
2022-09-09T14:23:16.883Z,3.75
2022-09-09T14:25:50.526Z,3.22
2022-09-09T14:28:39.262Z,7.00
2022-09-09T14:31:15.165Z,5.57
2022-09-09T14:34:19.735Z,4.05
2022-09-09T14:36:57.174Z,3.33
2022-09-09T14:39:29.057Z,3.17
2022-09-09T14:42:02.465Z,3.50
2022-09-09T14:44:35.062Z,3.97
2022-09-09T14:47:09.534Z,6.53
2022-09-09T14:49:45.095Z,6.03
2022-09-09T14:52:22.653Z,4.03
2022-09-09T14:54:54.773Z,6.15
2022-09-09T14:57:27.341Z,3.20
2022-09-09T14:59:59.413Z,7.53
2022-09-09T15:02:32.764Z,5.18
2022-09-09T15:05:12.135Z,5.35
2022-09-09T15:07:48.535Z,3.50
2022-09-09T15:10:22.013Z,8.63
2022-09-09T15:12:54.975Z,4.28
2022-09-09T15:15:28.253Z,5.40
2022-09-09T15:18:00.933Z,7.32
2022-09-09T15:20:37.077Z,5.18
2022-09-09T15:23:15.803Z,6.68
2022-09-09T15:25:56.415Z,5.15
2022-09-09T15:28:29.295Z,5.85
2022-09-09T15:31:02.024Z,4.25
2022-09-09T15:33:34.921Z,3.13
2022-09-09T15:36:17.717Z,5.40
2022-09-09T15:38:52.764Z,2.83
2022-09-09T15:41:25.985Z,7.05
2022-09-09T15:43:59.988Z,5.05
2022-09-09T15:46:37.289Z,6.22
2022-09-09T15:49:11.681Z,5.22
2022-09-09T15:51:44.949Z,6.35
2022-09-09T15:54:24.494Z,5.22
2022-09-09T15:56:59.068Z,6.82
2022-09-09T15:59:34.609Z,4.57
2022-09-09T16:02:07.813Z,6.22
2022-09-09T16:04:39.812Z,6.90
2022-09-09T16:07:11.422Z,4.40
2022-09-09T16:09:46.683Z,8.25
2022-09-09T16:12:17.990Z,6.75
2022-09-09T16:14:50.353Z,4.88
2022-09-09T16:17:22.469Z,3.95
2022-09-09T16:19:58.797Z,4.85
2022-09-09T16:22:31.179Z,4.05
2022-09-09T16:25:05.900Z,6.15
2022-09-09T16:27:40.545Z,3.15
2022-09-09T16:30:51.302Z,2.83
2022-09-09T16:33:23.516Z,5.00
2022-09-09T16:35:56.315Z,4.65
2022-09-09T16:38:28.455Z,4.18
2022-09-09T16:41:08.216Z,4.60
2022-09-09T16:43:41.856Z,2.95
2022-09-09T16:46:18.134Z,6.70
2022-09-09T16:48:52.037Z,4.47
2022-09-09T16:51:26.776Z,4.00
2022-09-09T16:53:59.735Z,8.23
2022-09-09T16:56:38.375Z,4.80
2022-09-09T16:59:12.839Z,4.05
2022-09-09T17:01:47.474Z,6.40
2022-09-09T17:04:22.040Z,4.38
2022-09-09T17:06:56.067Z,4.35
2022-09-09T17:09:30.516Z,6.55
2022-09-09T17:12:06.426Z,5.68
2022-09-09T17:14:39.688Z,6.32
2022-09-09T17:17:30.607Z,6.97
2022-09-09T17:20:03.661Z,4.90
2022-09-09T17:22:35.962Z,6.15
2022-09-09T17:25:08.272Z,6.13
2022-09-09T17:27:43.033Z,3.85
2022-09-09T17:30:17.783Z,7.07
2022-09-09T17:32:49.581Z,5.60
2022-09-09T17:35:20.995Z,5.85
2022-09-09T17:37:52.947Z,7.90
2022-09-09T17:40:24.846Z,5.50
2022-09-09T17:43:00.456Z,5.85
2022-09-09T17:45:33.517Z,6.60
2022-09-09T17:48:08.203Z,6.97
2022-09-09T17:50:39.666Z,8.32
2022-09-09T17:53:11.830Z,6.97
2022-09-09T17:55:43.422Z,7.38
2022-09-09T17:58:17.909Z,6.45
2022-09-09T18:00:49.770Z,4.80
2022-09-09T18:03:21.720Z,8.13
2022-09-09T18:05:52.859Z,6.10
2022-09-09T18:08:24.657Z,6.20
2022-09-09T18:10:57.020Z,3.75
2022-09-09T18:13:31.168Z,6.20
2022-09-09T18:16:03.110Z,6.55
2022-09-09T18:18:34.828Z,4.47
2022-09-09T18:21:09.166Z,5.30
2022-09-09T18:23:43.147Z,3.53
2022-09-09T18:26:16.981Z,4.45
2022-09-09T18:28:56.428Z,3.40
2022-09-09T18:31:30.253Z,4.70
2022-09-09T18:34:07.409Z,4.90
2022-09-09T18:36:40.835Z,6.90
2022-09-09T18:39:13.572Z,5.75
2022-09-09T18:41:47.494Z,5.60
2022-09-09T18:44:26.247Z,6.80
2022-09-09T18:46:57.953Z,6.18
2022-09-09T18:49:30.157Z,7.15
2022-09-09T18:52:03.168Z,5.82
2022-09-09T18:54:36.534Z,3.50
2022-09-09T18:57:07.960Z,5.00
2022-09-09T18:59:43.349Z,4.93
2022-09-09T19:02:15.271Z,4.63
2022-09-09T19:04:47.276Z,7.80
2022-09-09T19:07:18.795Z,5.15
2022-09-09T19:09:50.831Z,4.95
2022-09-09T19:12:22.488Z,3.17
2022-09-09T19:14:57.352Z,4.85
2022-09-09T19:17:30.938Z,6.05
2022-09-09T19:20:02.942Z,4.68
2022-09-09T19:22:34.701Z,4.55
2022-09-09T19:25:07.504Z,4.63
2022-09-09T19:27:38.857Z,3.95
2022-09-09T19:30:13.968Z,4.28
2022-09-09T19:32:54.129Z,5.35
2022-09-09T19:35:26.624Z,7.28
2022-09-09T19:37:58.011Z,5.97
2022-09-09T19:40:29.604Z,4.32
2022-09-09T19:43:00.906Z,5.03
2022-09-09T19:45:35.635Z,5.22
2022-09-09T19:48:07.215Z,3.60
2022-09-09T19:50:39.490Z,3.83
2022-09-09T19:53:10.846Z,3.72
2022-09-09T19:55:42.624Z,3.97
2022-09-09T19:58:14.529Z,7.22
2022-09-09T20:00:49.908Z,3.15
2022-09-09T20:03:21.141Z,3.28
2022-09-09T20:05:54.154Z,2.35
2022-09-09T20:08:27.674Z,3.22
2022-09-09T20:10:59.914Z,4.60
2022-09-09T20:13:32.192Z,4.70
2022-09-09T20:16:08.339Z,5.65
2022-09-09T20:18:42.487Z,5.45
2022-09-09T20:21:21.417Z,6.43
2022-09-09T20:23:56.280Z,3.95
2022-09-09T20:26:33.816Z,3.35
2022-09-09T20:29:12.086Z,4.38
2022-09-09T20:31:52.198Z,3.53
2022-09-09T20:34:27.918Z,3.80
2022-09-09T20:37:03.044Z,5.25
2022-09-09T20:39:36.519Z,4.40
2022-09-09T20:42:09.021Z,2.83
2022-09-09T20:44:40.840Z,6.88
2022-09-09T20:47:15.588Z,3.25
2022-09-09T20:49:47.302Z,4.18
2022-09-09T20:52:20.801Z,5.65
2022-09-09T20:54:54.599Z,6.47
2022-09-09T20:57:26.801Z,3.63
2022-09-09T20:59:58.621Z,4.45
2022-09-09T21:02:33.660Z,5.15
2022-09-09T21:05:05.781Z,5.88
2022-09-09T21:07:37.979Z,3.72
2022-09-09T21:10:11.428Z,3.97
2022-09-09T21:12:43.827Z,5.65
2022-09-09T21:15:16.660Z,5.57
2022-09-09T21:17:51.800Z,5.43
2022-09-09T21:20:24.061Z,6.25
2022-09-09T21:22:56.583Z,6.72
2022-09-09T21:25:28.740Z,7.07
2022-09-09T21:28:01.340Z,5.78
2022-09-09T21:30:40.557Z,5.43
2022-09-09T21:33:19.161Z,4.05
2022-09-09T21:35:51.819Z,6.93
2022-09-09T21:38:26.880Z,5.95
2022-09-09T21:40:58.981Z,4.13
2022-09-09T21:43:31.481Z,4.10
2022-09-09T21:46:04.232Z,4.45
2022-09-09T21:48:42.113Z,5.15
2022-09-09T21:51:17.438Z,4.68
2022-09-09T21:56:54.748Z,8.35
2022-09-09T21:59:26.872Z,5.15
2022-09-09T22:01:58.766Z,5.60
2022-09-09T22:04:36.444Z,6.00
2022-09-09T22:07:12.202Z,4.82
2022-09-09T22:09:44.846Z,5.70
2022-09-09T22:12:17.167Z,4.82
2022-09-09T22:14:49.547Z,4.53
2022-09-09T22:17:24.788Z,4.18
2022-09-09T22:19:59.924Z,4.93
2022-09-09T22:22:32.005Z,6.72
2022-09-09T22:25:04.547Z,4.55
2022-09-09T22:27:36.786Z,5.57
2022-09-09T22:30:10.952Z,12.63
2022-09-09T22:32:42.906Z,5.20
2022-09-09T22:35:18.486Z,4.93
2022-09-09T22:37:50.467Z,5.22
2022-09-09T22:40:22.888Z,4.80
2022-09-09T22:42:57.365Z,8.32
2022-09-09T22:45:29.886Z,4.82
2022-09-09T22:48:02.825Z,6.93
2022-09-09T22:50:42.364Z,4.95
2022-09-09T22:53:18.906Z,6.90
2022-09-09T22:56:00.887Z,4.32
2022-09-09T22:58:35.316Z,4.38
2022-09-09T23:01:15.882Z,5.70
2022-09-09T23:03:49.710Z,4.78
2022-09-09T23:06:27.826Z,7.70
2022-09-09T23:09:02.435Z,5.97
2022-09-09T23:11:39.325Z,5.60
2022-09-09T23:14:15.526Z,6.90
2022-09-09T23:16:50.238Z,3.42
2022-09-09T23:19:23.017Z,8.35
2022-09-09T23:21:58.656Z,5.25
2022-09-09T23:24:31.063Z,5.20
2022-09-09T23:27:03.677Z,5.53
2022-09-09T23:29:35.637Z,7.10
2022-09-09T23:32:08.919Z,6.20
2022-09-09T23:34:41.117Z,4.85
2022-09-09T23:37:16.657Z,3.72
2022-09-09T23:39:48.910Z,6.68
2022-09-09T23:42:21.517Z,5.30
2022-09-09T23:44:54.224Z,4.43
2022-09-09T23:47:26.739Z,7.35
2022-09-09T23:49:58.978Z,8.13
2022-09-09T23:52:33.820Z,5.90
2022-09-09T23:55:05.896Z,5.43
2022-09-09T23:57:37.997Z,6.13
